sensor_id;sensor_type;location;lat;lon;timestamp;P1;durP1;ratioP1;P2;durP2;ratioP2
55827;SDS011;41758;51.992;5.890;2024-02-15T00:00:13;22.13;;;19.90;;
55827;SDS011;41758;51.992;5.890;2024-02-15T00:02:41;26.17;;;23.45;;
55827;SDS011;41758;51.992;5.890;2024-02-15T00:05:09;23.35;;;21.05;;
55827;SDS011;41758;51.992;5.890;2024-02-15T00:07:35;23.85;;;21.45;;
55827;SDS011;41758;51.992;5.890;2024-02-15T00:10:01;25.17;;;22.63;;
55827;SDS011;41758;51.992;5.890;2024-02-15T00:12:29;23.33;;;21.13;;
55827;SDS011;41758;51.992;5.890;2024-02-15T00:14:55;25.67;;;23.08;;
55827;SDS011;41758;51.992;5.890;2024-02-15T00:17:23;25.88;;;23.27;;
55827;SDS011;41758;51.992;5.890;2024-02-15T00:19:50;27.13;;;24.30;;
55827;SDS011;41758;51.992;5.890;2024-02-15T00:22:16;26.73;;;23.85;;
55827;SDS011;41758;51.992;5.890;2024-02-15T00:24:42;23.02;;;20.83;;
55827;SDS011;41758;51.992;5.890;2024-02-15T00:27:08;25.02;;;22.63;;
55827;SDS011;41758;51.992;5.890;2024-02-15T00:29:33;26.98;;;24.15;;
55827;SDS011;41758;51.992;5.890;2024-02-15T00:32:00;24.48;;;22.08;;
55827;SDS011;41758;51.992;5.890;2024-02-15T00:34:26;24.63;;;22.08;;
55827;SDS011;41758;51.992;5.890;2024-02-15T00:36:52;22.45;;;20.15;;
55827;SDS011;41758;51.992;5.890;2024-02-15T00:39:18;21.77;;;19.58;;
55827;SDS011;41758;51.992;5.890;2024-02-15T00:41:45;25.02;;;22.63;;
55827;SDS011;41758;51.992;5.890;2024-02-15T00:44:11;32.22;;;28.83;;
55827;SDS011;41758;51.992;5.890;2024-02-15T00:46:37;28.00;;;25.05;;
55827;SDS011;41758;51.992;5.890;2024-02-15T00:49:03;29.92;;;26.95;;
55827;SDS011;41758;51.992;5.890;2024-02-15T00:51:37;27.17;;;24.40;;
55827;SDS011;41758;51.992;5.890;2024-02-15T00:54:03;29.08;;;26.08;;
55827;SDS011;41758;51.992;5.890;2024-02-15T00:56:29;32.22;;;28.95;;
55827;SDS011;41758;51.992;5.890;2024-02-15T00:58:56;31.33;;;28.23;;
55827;SDS011;41758;51.992;5.890;2024-02-15T01:01:22;31.15;;;27.83;;
55827;SDS011;41758;51.992;5.890;2024-02-15T01:03:48;28.83;;;25.98;;
55827;SDS011;41758;51.992;5.890;2024-02-15T01:06:13;28.23;;;25.52;;
55827;SDS011;41758;51.992;5.890;2024-02-15T01:08:39;33.20;;;29.80;;
55827;SDS011;41758;51.992;5.890;2024-02-15T01:11:04;31.58;;;28.35;;
55827;SDS011;41758;51.992;5.890;2024-02-15T01:13:31;30.38;;;27.08;;
55827;SDS011;41758;51.992;5.890;2024-02-15T01:15:57;32.47;;;29.08;;
55827;SDS011;41758;51.992;5.890;2024-02-15T01:18:22;29.42;;;26.48;;
55827;SDS011;41758;51.992;5.890;2024-02-15T01:20:48;30.67;;;27.67;;
55827;SDS011;41758;51.992;5.890;2024-02-15T01:23:14;30.80;;;27.52;;
55827;SDS011;41758;51.992;5.890;2024-02-15T01:25:40;28.60;;;25.70;;
55827;SDS011;41758;51.992;5.890;2024-02-15T01:28:06;26.20;;;22.23;;
55827;SDS011;41758;51.992;5.890;2024-02-15T01:30:32;26.52;;;24.00;;
55827;SDS011;41758;51.992;5.890;2024-02-15T01:32:58;22.88;;;20.58;;
55827;SDS011;41758;51.992;5.890;2024-02-15T01:35:24;23.10;;;20.75;;
55827;SDS011;41758;51.992;5.890;2024-02-15T01:37:50;21.85;;;19.70;;
55827;SDS011;41758;51.992;5.890;2024-02-15T01:40:16;20.83;;;18.73;;
55827;SDS011;41758;51.992;5.890;2024-02-15T01:42:42;25.73;;;23.20;;
55827;SDS011;41758;51.992;5.890;2024-02-15T01:45:10;22.92;;;20.55;;
55827;SDS011;41758;51.992;5.890;2024-02-15T01:47:37;23.05;;;20.65;;
55827;SDS011;41758;51.992;5.890;2024-02-15T01:50:05;20.35;;;18.25;;
55827;SDS011;41758;51.992;5.890;2024-02-15T01:52:32;24.70;;;22.20;;
55827;SDS011;41758;51.992;5.890;2024-02-15T01:54:58;25.02;;;22.35;;
55827;SDS011;41758;51.992;5.890;2024-02-15T01:57:26;22.10;;;19.83;;
55827;SDS011;41758;51.992;5.890;2024-02-15T01:59:52;22.38;;;20.02;;
55827;SDS011;41758;51.992;5.890;2024-02-15T02:02:18;21.77;;;19.52;;
55827;SDS011;41758;51.992;5.890;2024-02-15T02:04:47;19.23;;;17.23;;
55827;SDS011;41758;51.992;5.890;2024-02-15T02:07:13;17.77;;;15.95;;
55827;SDS011;41758;51.992;5.890;2024-02-15T02:09:39;18.48;;;16.58;;
55827;SDS011;41758;51.992;5.890;2024-02-15T02:12:05;19.63;;;15.98;;
55827;SDS011;41758;51.992;5.890;2024-02-15T02:14:32;17.23;;;14.85;;
55827;SDS011;41758;51.992;5.890;2024-02-15T02:17:32;15.38;;;13.40;;
55827;SDS011;41758;51.992;5.890;2024-02-15T02:19:51;19.20;;;16.13;;
55827;SDS011;41758;51.992;5.890;2024-02-15T02:22:16;16.90;;;15.30;;
55827;SDS011;41758;51.992;5.890;2024-02-15T02:25:03;16.40;;;14.20;;
55827;SDS011;41758;51.992;5.890;2024-02-15T02:27:32;13.90;;;12.20;;
55827;SDS011;41758;51.992;5.890;2024-02-15T02:29:57;18.75;;;15.57;;
55827;SDS011;41758;51.992;5.890;2024-02-15T02:32:27;17.75;;;15.65;;
55827;SDS011;41758;51.992;5.890;2024-02-15T02:34:53;17.10;;;15.30;;
55827;SDS011;41758;51.992;5.890;2024-02-15T02:37:25;18.35;;;15.23;;
55827;SDS011;41758;51.992;5.890;2024-02-15T02:39:51;17.42;;;14.95;;
55827;SDS011;41758;51.992;5.890;2024-02-15T02:42:17;16.60;;;14.77;;
55827;SDS011;41758;51.992;5.890;2024-02-15T02:44:43;16.40;;;14.55;;
55827;SDS011;41758;51.992;5.890;2024-02-15T02:47:09;16.45;;;14.38;;
55827;SDS011;41758;51.992;5.890;2024-02-15T02:49:35;16.50;;;13.57;;
55827;SDS011;41758;51.992;5.890;2024-02-15T02:52:02;14.90;;;13.27;;
55827;SDS011;41758;51.992;5.890;2024-02-15T02:54:28;14.50;;;12.98;;
55827;SDS011;41758;51.992;5.890;2024-02-15T02:56:54;15.38;;;13.18;;
55827;SDS011;41758;51.992;5.890;2024-02-15T02:59:20;17.17;;;13.77;;
55827;SDS011;41758;51.992;5.890;2024-02-15T03:01:46;15.65;;;12.85;;
55827;SDS011;41758;51.992;5.890;2024-02-15T03:04:14;14.77;;;12.02;;
55827;SDS011;41758;51.992;5.890;2024-02-15T03:06:42;19.35;;;14.68;;
55827;SDS011;41758;51.992;5.890;2024-02-15T03:09:08;17.80;;;15.32;;
55827;SDS011;41758;51.992;5.890;2024-02-15T03:11:35;18.70;;;14.48;;
55827;SDS011;41758;51.992;5.890;2024-02-15T03:14:01;15.77;;;13.60;;
55827;SDS011;41758;51.992;5.890;2024-02-15T03:16:30;16.10;;;13.40;;
55827;SDS011;41758;51.992;5.890;2024-02-15T03:18:56;17.77;;;13.13;;
55827;SDS011;41758;51.992;5.890;2024-02-15T03:21:22;15.52;;;12.68;;
55827;SDS011;41758;51.992;5.890;2024-02-15T03:23:47;17.08;;;12.68;;
55827;SDS011;41758;51.992;5.890;2024-02-15T03:26:13;13.40;;;12.00;;
55827;SDS011;41758;51.992;5.890;2024-02-15T03:28:39;12.63;;;11.32;;
55827;SDS011;41758;51.992;5.890;2024-02-15T03:31:05;13.77;;;11.05;;
55827;SDS011;41758;51.992;5.890;2024-02-15T03:33:30;13.27;;;10.68;;
55827;SDS011;41758;51.992;5.890;2024-02-15T03:35:59;12.25;;;10.98;;
55827;SDS011;41758;51.992;5.890;2024-02-15T03:38:28;14.07;;;10.43;;
55827;SDS011;41758;51.992;5.890;2024-02-15T03:40:55;11.90;;;9.20;;
55827;SDS011;41758;51.992;5.890;2024-02-15T03:43:21;10.88;;;9.40;;
55827;SDS011;41758;51.992;5.890;2024-02-15T03:45:48;9.90;;;8.82;;
55827;SDS011;41758;51.992;5.890;2024-02-15T03:48:14;12.32;;;9.60;;
55827;SDS011;41758;51.992;5.890;2024-02-15T03:50:40;11.27;;;10.07;;
55827;SDS011;41758;51.992;5.890;2024-02-15T03:53:07;13.93;;;10.63;;
55827;SDS011;41758;51.992;5.890;2024-02-15T03:55:34;13.65;;;10.68;;
55827;SDS011;41758;51.992;5.890;2024-02-15T03:58:01;14.45;;;11.02;;
55827;SDS011;41758;51.992;5.890;2024-02-15T04:00:27;15.75;;;11.30;;
55827;SDS011;41758;51.992;5.890;2024-02-15T04:02:53;13.18;;;10.70;;
55827;SDS011;41758;51.992;5.890;2024-02-15T04:05:18;14.00;;;10.63;;
55827;SDS011;41758;51.992;5.890;2024-02-15T04:07:46;12.13;;;10.23;;
55827;SDS011;41758;51.992;5.890;2024-02-15T04:10:13;12.52;;;9.82;;
55827;SDS011;41758;51.992;5.890;2024-02-15T04:12:39;11.15;;;8.80;;
55827;SDS011;41758;51.992;5.890;2024-02-15T04:15:07;9.98;;;8.10;;
55827;SDS011;41758;51.992;5.890;2024-02-15T04:17:40;10.80;;;8.93;;
55827;SDS011;41758;51.992;5.890;2024-02-15T04:20:07;11.07;;;7.95;;
55827;SDS011;41758;51.992;5.890;2024-02-15T04:22:34;10.90;;;8.57;;
55827;SDS011;41758;51.992;5.890;2024-02-15T04:25:05;11.75;;;8.38;;
55827;SDS011;41758;51.992;5.890;2024-02-15T04:27:35;11.55;;;8.15;;
55827;SDS011;41758;51.992;5.890;2024-02-15T04:30:03;14.35;;;9.25;;
55827;SDS011;41758;51.992;5.890;2024-02-15T04:32:29;12.60;;;8.80;;
55827;SDS011;41758;51.992;5.890;2024-02-15T04:34:58;9.93;;;7.90;;
55827;SDS011;41758;51.992;5.890;2024-02-15T04:37:25;10.43;;;7.40;;
55827;SDS011;41758;51.992;5.890;2024-02-15T04:39:52;9.05;;;7.20;;
55827;SDS011;41758;51.992;5.890;2024-02-15T04:42:17;12.15;;;8.00;;
55827;SDS011;41758;51.992;5.890;2024-02-15T04:44:43;9.50;;;7.32;;
55827;SDS011;41758;51.992;5.890;2024-02-15T04:47:09;11.43;;;8.07;;
55827;SDS011;41758;51.992;5.890;2024-02-15T04:49:35;9.90;;;7.07;;
55827;SDS011;41758;51.992;5.890;2024-02-15T04:52:03;11.48;;;7.68;;
55827;SDS011;41758;51.992;5.890;2024-02-15T04:54:29;13.10;;;7.25;;
55827;SDS011;41758;51.992;5.890;2024-02-15T04:56:56;9.77;;;7.07;;
55827;SDS011;41758;51.992;5.890;2024-02-15T04:59:22;10.07;;;7.32;;
55827;SDS011;41758;51.992;5.890;2024-02-15T05:01:51;10.60;;;7.15;;
55827;SDS011;41758;51.992;5.890;2024-02-15T05:04:21;8.95;;;6.93;;
55827;SDS011;41758;51.992;5.890;2024-02-15T05:06:48;17.48;;;8.90;;
55827;SDS011;41758;51.992;5.890;2024-02-15T05:09:13;13.02;;;7.97;;
55827;SDS011;41758;51.992;5.890;2024-02-15T05:11:40;14.30;;;8.38;;
55827;SDS011;41758;51.992;5.890;2024-02-15T05:14:15;11.10;;;7.00;;
55827;SDS011;41758;51.992;5.890;2024-02-15T05:16:48;9.25;;;6.40;;
55827;SDS011;41758;51.992;5.890;2024-02-15T05:19:18;11.35;;;8.13;;
55827;SDS011;41758;51.992;5.890;2024-02-15T05:21:44;11.43;;;7.93;;
55827;SDS011;41758;51.992;5.890;2024-02-15T05:24:12;16.83;;;9.00;;
55827;SDS011;41758;51.992;5.890;2024-02-15T05:26:43;13.20;;;8.23;;
55827;SDS011;41758;51.992;5.890;2024-02-15T05:29:12;13.00;;;8.30;;
55827;SDS011;41758;51.992;5.890;2024-02-15T05:31:38;14.05;;;8.63;;
55827;SDS011;41758;51.992;5.890;2024-02-15T05:34:09;13.95;;;8.25;;
55827;SDS011;41758;51.992;5.890;2024-02-15T05:36:36;11.65;;;7.53;;
55827;SDS011;41758;51.992;5.890;2024-02-15T05:39:03;14.18;;;7.80;;
55827;SDS011;41758;51.992;5.890;2024-02-15T05:41:30;12.02;;;7.85;;
55827;SDS011;41758;51.992;5.890;2024-02-15T05:43:57;12.23;;;7.90;;
55827;SDS011;41758;51.992;5.890;2024-02-15T05:46:24;11.23;;;7.75;;
55827;SDS011;41758;51.992;5.890;2024-02-15T05:48:50;14.05;;;7.57;;
55827;SDS011;41758;51.992;5.890;2024-02-15T05:51:19;13.48;;;8.35;;
55827;SDS011;41758;51.992;5.890;2024-02-15T05:53:46;12.68;;;7.43;;
55827;SDS011;41758;51.992;5.890;2024-02-15T05:56:14;10.65;;;6.05;;
55827;SDS011;41758;51.992;5.890;2024-02-15T05:58:41;12.65;;;7.18;;
55827;SDS011;41758;51.992;5.890;2024-02-15T06:01:07;9.88;;;6.82;;
55827;SDS011;41758;51.992;5.890;2024-02-15T06:03:37;10.77;;;6.65;;
55827;SDS011;41758;51.992;5.890;2024-02-15T06:06:04;10.25;;;6.90;;
55827;SDS011;41758;51.992;5.890;2024-02-15T06:08:33;11.55;;;7.50;;
55827;SDS011;41758;51.992;5.890;2024-02-15T06:10:59;12.43;;;7.10;;
55827;SDS011;41758;51.992;5.890;2024-02-15T06:13:26;11.85;;;6.53;;
55827;SDS011;41758;51.992;5.890;2024-02-15T06:15:52;9.15;;;6.35;;
55827;SDS011;41758;51.992;5.890;2024-02-15T06:18:23;11.73;;;6.80;;
55827;SDS011;41758;51.992;5.890;2024-02-15T06:20:51;12.60;;;7.03;;
55827;SDS011;41758;51.992;5.890;2024-02-15T06:23:17;9.35;;;6.50;;
55827;SDS011;41758;51.992;5.890;2024-02-15T06:25:43;10.18;;;6.45;;
55827;SDS011;41758;51.992;5.890;2024-02-15T06:28:16;9.32;;;6.68;;
55827;SDS011;41758;51.992;5.890;2024-02-15T06:31:05;12.57;;;6.93;;
55827;SDS011;41758;51.992;5.890;2024-02-15T06:33:53;11.15;;;6.85;;
55827;SDS011;41758;51.992;5.890;2024-02-15T06:36:46;11.02;;;7.20;;
55827;SDS011;41758;51.992;5.890;2024-02-15T06:39:31;11.05;;;7.63;;
55827;SDS011;41758;51.992;5.890;2024-02-15T06:42:06;14.20;;;8.10;;
55827;SDS011;41758;51.992;5.890;2024-02-15T06:44:32;14.02;;;7.82;;
55827;SDS011;41758;51.992;5.890;2024-02-15T06:46:58;10.25;;;7.38;;
55827;SDS011;41758;51.992;5.890;2024-02-15T06:49:24;9.63;;;6.50;;
55827;SDS011;41758;51.992;5.890;2024-02-15T06:51:50;12.90;;;7.72;;
55827;SDS011;41758;51.992;5.890;2024-02-15T06:54:16;11.20;;;7.10;;
55827;SDS011;41758;51.992;5.890;2024-02-15T06:56:45;11.43;;;7.00;;
55827;SDS011;41758;51.992;5.890;2024-02-15T06:59:11;8.45;;;6.38;;
55827;SDS011;41758;51.992;5.890;2024-02-15T07:01:40;9.77;;;7.53;;
55827;SDS011;41758;51.992;5.890;2024-02-15T07:04:07;10.85;;;7.38;;
55827;SDS011;41758;51.992;5.890;2024-02-15T07:06:36;11.00;;;6.97;;
55827;SDS011;41758;51.992;5.890;2024-02-15T07:09:03;10.43;;;6.80;;
55827;SDS011;41758;51.992;5.890;2024-02-15T07:11:29;10.73;;;7.32;;
55827;SDS011;41758;51.992;5.890;2024-02-15T07:13:57;8.30;;;6.80;;
55827;SDS011;41758;51.992;5.890;2024-02-15T07:16:23;8.48;;;6.45;;
55827;SDS011;41758;51.992;5.890;2024-02-15T07:18:49;8.43;;;6.38;;
55827;SDS011;41758;51.992;5.890;2024-02-15T07:21:15;9.65;;;6.43;;
55827;SDS011;41758;51.992;5.890;2024-02-15T07:23:41;8.52;;;5.78;;
55827;SDS011;41758;51.992;5.890;2024-02-15T07:26:07;10.25;;;6.97;;
55827;SDS011;41758;51.992;5.890;2024-02-15T07:28:33;6.90;;;5.55;;
55827;SDS011;41758;51.992;5.890;2024-02-15T07:30:59;8.77;;;5.95;;
55827;SDS011;41758;51.992;5.890;2024-02-15T07:33:27;11.00;;;7.15;;
55827;SDS011;41758;51.992;5.890;2024-02-15T07:35:54;11.77;;;7.25;;
55827;SDS011;41758;51.992;5.890;2024-02-15T07:38:21;11.00;;;7.53;;
55827;SDS011;41758;51.992;5.890;2024-02-15T07:40:50;10.10;;;7.03;;
55827;SDS011;41758;51.992;5.890;2024-02-15T07:43:16;9.23;;;6.40;;
55827;SDS011;41758;51.992;5.890;2024-02-15T07:45:42;11.88;;;7.93;;
55827;SDS011;41758;51.992;5.890;2024-02-15T07:48:08;8.60;;;6.43;;
55827;SDS011;41758;51.992;5.890;2024-02-15T07:50:36;8.15;;;5.65;;
55827;SDS011;41758;51.992;5.890;2024-02-15T07:53:03;9.73;;;6.45;;
55827;SDS011;41758;51.992;5.890;2024-02-15T07:55:31;12.35;;;6.68;;
55827;SDS011;41758;51.992;5.890;2024-02-15T07:57:57;8.77;;;5.60;;
55827;SDS011;41758;51.992;5.890;2024-02-15T08:00:24;9.57;;;7.20;;
55827;SDS011;41758;51.992;5.890;2024-02-15T08:02:52;9.65;;;7.13;;
55827;SDS011;41758;51.992;5.890;2024-02-15T08:05:18;10.07;;;6.95;;
55827;SDS011;41758;51.992;5.890;2024-02-15T08:07:44;9.73;;;6.78;;
55827;SDS011;41758;51.992;5.890;2024-02-15T08:10:11;8.43;;;6.55;;
55827;SDS011;41758;51.992;5.890;2024-02-15T08:12:43;8.15;;;6.72;;
55827;SDS011;41758;51.992;5.890;2024-02-15T08:15:10;10.90;;;7.03;;
55827;SDS011;41758;51.992;5.890;2024-02-15T08:17:45;7.13;;;5.80;;
55827;SDS011;41758;51.992;5.890;2024-02-15T08:20:11;9.90;;;7.07;;
55827;SDS011;41758;51.992;5.890;2024-02-15T08:22:38;10.00;;;6.72;;
55827;SDS011;41758;51.992;5.890;2024-02-15T08:25:08;10.98;;;6.63;;
55827;SDS011;41758;51.992;5.890;2024-02-15T08:27:39;11.20;;;6.63;;
55827;SDS011;41758;51.992;5.890;2024-02-15T08:30:13;15.65;;;7.05;;
55827;SDS011;41758;51.992;5.890;2024-02-15T08:32:39;6.85;;;5.60;;
55827;SDS011;41758;51.992;5.890;2024-02-15T08:35:07;8.25;;;6.13;;
55827;SDS011;41758;51.992;5.890;2024-02-15T08:37:34;8.43;;;6.72;;
55827;SDS011;41758;51.992;5.890;2024-02-15T08:40:07;7.20;;;6.07;;
55827;SDS011;41758;51.992;5.890;2024-02-15T08:42:40;9.60;;;6.50;;
55827;SDS011;41758;51.992;5.890;2024-02-15T08:45:07;7.55;;;5.75;;
55827;SDS011;41758;51.992;5.890;2024-02-15T08:47:37;7.80;;;6.47;;
55827;SDS011;41758;51.992;5.890;2024-02-15T08:50:04;7.80;;;6.03;;
55827;SDS011;41758;51.992;5.890;2024-02-15T08:52:31;7.13;;;5.80;;
55827;SDS011;41758;51.992;5.890;2024-02-15T08:54:57;8.45;;;6.15;;
55827;SDS011;41758;51.992;5.890;2024-02-15T08:57:24;7.72;;;5.85;;
55827;SDS011;41758;51.992;5.890;2024-02-15T08:59:51;6.82;;;5.38;;
55827;SDS011;41758;51.992;5.890;2024-02-15T09:02:17;7.35;;;5.82;;
55827;SDS011;41758;51.992;5.890;2024-02-15T09:04:43;7.57;;;5.70;;
55827;SDS011;41758;51.992;5.890;2024-02-15T09:07:09;8.80;;;6.65;;
55827;SDS011;41758;51.992;5.890;2024-02-15T09:09:35;8.18;;;6.25;;
55827;SDS011;41758;51.992;5.890;2024-02-15T09:12:04;7.95;;;6.13;;
55827;SDS011;41758;51.992;5.890;2024-02-15T09:14:34;9.00;;;5.72;;
55827;SDS011;41758;51.992;5.890;2024-02-15T09:17:03;8.60;;;5.90;;
55827;SDS011;41758;51.992;5.890;2024-02-15T09:19:36;7.80;;;5.90;;
55827;SDS011;41758;51.992;5.890;2024-02-15T09:22:02;7.43;;;6.00;;
55827;SDS011;41758;51.992;5.890;2024-02-15T09:24:31;8.52;;;5.65;;
55827;SDS011;41758;51.992;5.890;2024-02-15T09:27:03;7.45;;;6.20;;
55827;SDS011;41758;51.992;5.890;2024-02-15T09:29:29;6.72;;;5.63;;
55827;SDS011;41758;51.992;5.890;2024-02-15T09:31:55;7.53;;;6.25;;
55827;SDS011;41758;51.992;5.890;2024-02-15T09:34:22;8.45;;;7.00;;
55827;SDS011;41758;51.992;5.890;2024-02-15T09:36:48;10.35;;;7.25;;
55827;SDS011;41758;51.992;5.890;2024-02-15T09:39:13;9.38;;;6.75;;
55827;SDS011;41758;51.992;5.890;2024-02-15T09:41:39;10.40;;;7.03;;
55827;SDS011;41758;51.992;5.890;2024-02-15T09:44:08;8.48;;;6.35;;
55827;SDS011;41758;51.992;5.890;2024-02-15T09:46:40;9.23;;;6.60;;
55827;SDS011;41758;51.992;5.890;2024-02-15T09:49:10;10.40;;;6.50;;
55827;SDS011;41758;51.992;5.890;2024-02-15T09:51:37;9.90;;;5.90;;
55827;SDS011;41758;51.992;5.890;2024-02-15T09:54:04;8.00;;;5.47;;
55827;SDS011;41758;51.992;5.890;2024-02-15T09:56:34;7.20;;;4.90;;
55827;SDS011;41758;51.992;5.890;2024-02-15T09:59:00;9.15;;;5.47;;
55827;SDS011;41758;51.992;5.890;2024-02-15T10:01:27;8.20;;;5.18;;
55827;SDS011;41758;51.992;5.890;2024-02-15T10:03:56;7.10;;;4.68;;
55827;SDS011;41758;51.992;5.890;2024-02-15T10:06:24;9.00;;;5.25;;
55827;SDS011;41758;51.992;5.890;2024-02-15T10:08:52;7.68;;;4.85;;
55827;SDS011;41758;51.992;5.890;2024-02-15T10:11:18;9.15;;;5.00;;
55827;SDS011;41758;51.992;5.890;2024-02-15T10:13:45;6.82;;;4.90;;
55827;SDS011;41758;51.992;5.890;2024-02-15T10:18:43;9.18;;;4.88;;
55827;SDS011;41758;51.992;5.890;2024-02-15T10:21:09;10.50;;;5.22;;
55827;SDS011;41758;51.992;5.890;2024-02-15T10:23:36;13.02;;;5.97;;
55827;SDS011;41758;51.992;5.890;2024-02-15T10:26:11;9.98;;;5.53;;
55827;SDS011;41758;51.992;5.890;2024-02-15T10:28:44;9.20;;;5.70;;
55827;SDS011;41758;51.992;5.890;2024-02-15T10:31:10;6.82;;;5.00;;
55827;SDS011;41758;51.992;5.890;2024-02-15T10:33:38;9.25;;;5.40;;
55827;SDS011;41758;51.992;5.890;2024-02-15T10:36:07;10.05;;;5.30;;
55827;SDS011;41758;51.992;5.890;2024-02-15T10:38:34;10.13;;;6.00;;
55827;SDS011;41758;51.992;5.890;2024-02-15T10:41:05;9.27;;;5.80;;
55827;SDS011;41758;51.992;5.890;2024-02-15T10:43:35;11.38;;;6.40;;
55827;SDS011;41758;51.992;5.890;2024-02-15T10:46:04;9.38;;;5.70;;
55827;SDS011;41758;51.992;5.890;2024-02-15T10:48:32;9.30;;;5.95;;
55827;SDS011;41758;51.992;5.890;2024-02-15T10:50:59;8.93;;;6.25;;
55827;SDS011;41758;51.992;5.890;2024-02-15T10:53:27;10.23;;;5.93;;
55827;SDS011;41758;51.992;5.890;2024-02-15T10:58:21;11.43;;;6.22;;
55827;SDS011;41758;51.992;5.890;2024-02-15T11:00:50;8.68;;;5.32;;
55827;SDS011;41758;51.992;5.890;2024-02-15T11:03:30;7.78;;;5.75;;
55827;SDS011;41758;51.992;5.890;2024-02-15T11:06:06;9.00;;;5.25;;
55827;SDS011;41758;51.992;5.890;2024-02-15T11:08:35;8.30;;;5.05;;
55827;SDS011;41758;51.992;5.890;2024-02-15T11:11:01;8.68;;;5.28;;
55827;SDS011;41758;51.992;5.890;2024-02-15T11:13:30;8.60;;;5.45;;
55827;SDS011;41758;51.992;5.890;2024-02-15T11:15:55;7.55;;;5.60;;
55827;SDS011;41758;51.992;5.890;2024-02-15T11:18:45;7.82;;;5.38;;
55827;SDS011;41758;51.992;5.890;2024-02-15T11:21:16;8.13;;;5.17;;
55827;SDS011;41758;51.992;5.890;2024-02-15T11:23:43;8.52;;;5.40;;
55827;SDS011;41758;51.992;5.890;2024-02-15T11:29:31;9.63;;;5.47;;
55827;SDS011;41758;51.992;5.890;2024-02-15T11:35:03;9.82;;;5.95;;
55827;SDS011;41758;51.992;5.890;2024-02-15T11:43:08;9.13;;;5.60;;
55827;SDS011;41758;51.992;5.890;2024-02-15T11:45:36;8.10;;;5.43;;
55827;SDS011;41758;51.992;5.890;2024-02-15T11:48:09;8.98;;;4.80;;
55827;SDS011;41758;51.992;5.890;2024-02-15T11:50:38;7.78;;;4.90;;
55827;SDS011;41758;51.992;5.890;2024-02-15T11:53:05;9.38;;;5.53;;
55827;SDS011;41758;51.992;5.890;2024-02-15T11:55:35;8.68;;;5.30;;
55827;SDS011;41758;51.992;5.890;2024-02-15T11:58:04;10.27;;;5.93;;
55827;SDS011;41758;51.992;5.890;2024-02-15T12:00:34;10.57;;;6.53;;
55827;SDS011;41758;51.992;5.890;2024-02-15T12:03:19;8.60;;;6.18;;
55827;SDS011;41758;51.992;5.890;2024-02-15T12:06:04;8.43;;;5.28;;
55827;SDS011;41758;51.992;5.890;2024-02-15T12:08:49;8.55;;;5.95;;
55827;SDS011;41758;51.992;5.890;2024-02-15T12:11:34;9.10;;;6.32;;
55827;SDS011;41758;51.992;5.890;2024-02-15T12:17:04;7.70;;;6.05;;
55827;SDS011;41758;51.992;5.890;2024-02-15T12:19:49;8.05;;;6.07;;
55827;SDS011;41758;51.992;5.890;2024-02-15T12:22:40;8.70;;;5.85;;
55827;SDS011;41758;51.992;5.890;2024-02-15T12:25:06;8.68;;;6.05;;
55827;SDS011;41758;51.992;5.890;2024-02-15T12:27:39;8.57;;;5.85;;
55827;SDS011;41758;51.992;5.890;2024-02-15T12:30:12;7.95;;;5.55;;
55827;SDS011;41758;51.992;5.890;2024-02-15T12:32:39;10.50;;;6.50;;
55827;SDS011;41758;51.992;5.890;2024-02-15T12:35:11;10.55;;;6.22;;
55827;SDS011;41758;51.992;5.890;2024-02-15T12:37:42;9.52;;;6.60;;
55827;SDS011;41758;51.992;5.890;2024-02-15T12:40:12;10.75;;;7.22;;
55827;SDS011;41758;51.992;5.890;2024-02-15T12:42:42;7.75;;;6.38;;
55827;SDS011;41758;51.992;5.890;2024-02-15T12:45:18;10.27;;;5.80;;
55827;SDS011;41758;51.992;5.890;2024-02-15T12:47:47;7.82;;;5.72;;
55827;SDS011;41758;51.992;5.890;2024-02-15T12:50:13;7.97;;;6.00;;
55827;SDS011;41758;51.992;5.890;2024-02-15T12:52:40;8.88;;;5.97;;
55827;SDS011;41758;51.992;5.890;2024-02-15T12:55:15;9.35;;;6.18;;
55827;SDS011;41758;51.992;5.890;2024-02-15T12:57:44;10.57;;;6.03;;
55827;SDS011;41758;51.992;5.890;2024-02-15T13:00:13;10.13;;;5.88;;
55827;SDS011;41758;51.992;5.890;2024-02-15T13:02:52;8.90;;;5.93;;
55827;SDS011;41758;51.992;5.890;2024-02-15T13:05:18;8.88;;;5.72;;
55827;SDS011;41758;51.992;5.890;2024-02-15T13:07:45;9.45;;;6.20;;
55827;SDS011;41758;51.992;5.890;2024-02-15T13:10:11;9.98;;;5.60;;
55827;SDS011;41758;51.992;5.890;2024-02-15T13:12:40;9.32;;;6.22;;
55827;SDS011;41758;51.992;5.890;2024-02-15T13:15:07;6.88;;;5.25;;
55827;SDS011;41758;51.992;5.890;2024-02-15T13:17:37;10.23;;;5.10;;
55827;SDS011;41758;51.992;5.890;2024-02-15T13:20:03;8.93;;;4.95;;
55827;SDS011;41758;51.992;5.890;2024-02-15T13:22:30;9.02;;;4.70;;
55827;SDS011;41758;51.992;5.890;2024-02-15T13:24:57;8.52;;;4.32;;
55827;SDS011;41758;51.992;5.890;2024-02-15T13:27:23;7.47;;;4.93;;
55827;SDS011;41758;51.992;5.890;2024-02-15T13:29:49;6.85;;;4.32;;
55827;SDS011;41758;51.992;5.890;2024-02-15T13:32:15;8.13;;;4.47;;
55827;SDS011;41758;51.992;5.890;2024-02-15T13:34:45;6.47;;;4.20;;
55827;SDS011;41758;51.992;5.890;2024-02-15T13:37:10;8.30;;;4.55;;
55827;SDS011;41758;51.992;5.890;2024-02-15T13:39:39;8.60;;;4.78;;
55827;SDS011;41758;51.992;5.890;2024-02-15T13:42:08;6.32;;;4.07;;
55827;SDS011;41758;51.992;5.890;2024-02-15T13:44:34;7.10;;;4.22;;
55827;SDS011;41758;51.992;5.890;2024-02-15T13:46:59;8.82;;;4.82;;
55827;SDS011;41758;51.992;5.890;2024-02-15T13:49:25;7.55;;;3.90;;
55827;SDS011;41758;51.992;5.890;2024-02-15T13:51:51;6.43;;;3.80;;
55827;SDS011;41758;51.992;5.890;2024-02-15T13:54:17;6.68;;;3.63;;
55827;SDS011;41758;51.992;5.890;2024-02-15T13:56:43;5.85;;;3.30;;
55827;SDS011;41758;51.992;5.890;2024-02-15T13:59:09;6.10;;;3.38;;
55827;SDS011;41758;51.992;5.890;2024-02-15T14:01:35;4.90;;;3.00;;
55827;SDS011;41758;51.992;5.890;2024-02-15T14:04:08;5.60;;;3.30;;
55827;SDS011;41758;51.992;5.890;2024-02-15T14:06:34;5.45;;;3.33;;
55827;SDS011;41758;51.992;5.890;2024-02-15T14:09:02;6.00;;;3.15;;
55827;SDS011;41758;51.992;5.890;2024-02-15T14:11:28;6.60;;;3.25;;
55827;SDS011;41758;51.992;5.890;2024-02-15T14:13:54;5.43;;;3.10;;
55827;SDS011;41758;51.992;5.890;2024-02-15T14:16:23;4.95;;;3.10;;
55827;SDS011;41758;51.992;5.890;2024-02-15T14:18:50;5.50;;;3.00;;
55827;SDS011;41758;51.992;5.890;2024-02-15T14:21:16;6.32;;;3.30;;
55827;SDS011;41758;51.992;5.890;2024-02-15T14:23:43;5.18;;;3.63;;
55827;SDS011;41758;51.992;5.890;2024-02-15T14:26:09;6.65;;;4.30;;
55827;SDS011;41758;51.992;5.890;2024-02-15T14:28:35;7.22;;;4.13;;
55827;SDS011;41758;51.992;5.890;2024-02-15T14:31:01;6.40;;;4.30;;
55827;SDS011;41758;51.992;5.890;2024-02-15T14:33:45;7.85;;;4.72;;
55827;SDS011;41758;51.992;5.890;2024-02-15T14:36:15;6.20;;;4.68;;
55827;SDS011;41758;51.992;5.890;2024-02-15T14:38:40;6.90;;;4.47;;
55827;SDS011;41758;51.992;5.890;2024-02-15T14:41:06;6.60;;;4.32;;
55827;SDS011;41758;51.992;5.890;2024-02-15T14:43:32;6.93;;;4.68;;
55827;SDS011;41758;51.992;5.890;2024-02-15T14:45:58;8.38;;;4.32;;
55827;SDS011;41758;51.992;5.890;2024-02-15T14:48:26;8.18;;;4.65;;
55827;SDS011;41758;51.992;5.890;2024-02-15T14:50:52;6.40;;;4.10;;
55827;SDS011;41758;51.992;5.890;2024-02-15T14:53:18;8.70;;;4.35;;
55827;SDS011;41758;51.992;5.890;2024-02-15T14:55:44;6.35;;;3.80;;
55827;SDS011;41758;51.992;5.890;2024-02-15T14:58:12;8.43;;;4.45;;
55827;SDS011;41758;51.992;5.890;2024-02-15T15:00:38;5.85;;;3.90;;